sensor_id;sensor_type;location;lat;lon;timestamp;pressure;altitude;pressure_sealevel;temperature;humidity
81545;BME280;70990;50.618;7.346;2024-03-06T00:01:03;98281.63;;;6.27;100.00
81545;BME280;70990;50.618;7.346;2024-03-06T00:03:30;98273.75;;;6.18;100.00
81545;BME280;70990;50.618;7.346;2024-03-06T00:05:56;98275.25;;;6.08;100.00
81545;BME280;70990;50.618;7.346;2024-03-06T00:08:23;98279.50;;;6.02;100.00
81545;BME280;70990;50.618;7.346;2024-03-06T00:10:49;98284.69;;;6.15;100.00
81545;BME280;70990;50.618;7.346;2024-03-06T00:13:16;98283.16;;;6.21;100.00
81545;BME280;70990;50.618;7.346;2024-03-06T00:15:42;98297.25;;;6.19;100.00
81545;BME280;70990;50.618;7.346;2024-03-06T00:18:09;98287.75;;;6.06;100.00
81545;BME280;70990;50.618;7.346;2024-03-06T00:20:35;98302.28;;;6.10;100.00
81545;BME280;70990;50.618;7.346;2024-03-06T00:23:05;98304.25;;;6.10;100.00
81545;BME280;70990;50.618;7.346;2024-03-06T00:25:31;98310.63;;;6.24;100.00
81545;BME280;70990;50.618;7.346;2024-03-06T00:27:58;98299.28;;;6.29;100.00
81545;BME280;70990;50.618;7.346;2024-03-06T00:30:24;98306.69;;;6.22;100.00
81545;BME280;70990;50.618;7.346;2024-03-06T00:32:51;98307.53;;;6.29;100.00
81545;BME280;70990;50.618;7.346;2024-03-06T00:35:19;98310.63;;;6.28;100.00
81545;BME280;70990;50.618;7.346;2024-03-06T00:37:46;98308.72;;;6.35;100.00
81545;BME280;70990;50.618;7.346;2024-03-06T00:40:13;98313.75;;;6.26;100.00
81545;BME280;70990;50.618;7.346;2024-03-06T00:42:39;98315.34;;;6.27;100.00
81545;BME280;70990;50.618;7.346;2024-03-06T00:45:07;98315.59;;;6.08;100.00
81545;BME280;70990;50.618;7.346;2024-03-06T00:47:33;98325.28;;;5.95;100.00
81545;BME280;70990;50.618;7.346;2024-03-06T00:50:00;98328.03;;;5.95;100.00
81545;BME280;70990;50.618;7.346;2024-03-06T00:52:27;98328.00;;;5.91;100.00
81545;BME280;70990;50.618;7.346;2024-03-06T00:54:53;98325.59;;;5.86;100.00
81545;BME280;70990;50.618;7.346;2024-03-06T00:57:20;98331.34;;;5.74;100.00
81545;BME280;70990;50.618;7.346;2024-03-06T00:59:46;98336.00;;;5.70;100.00
81545;BME280;70990;50.618;7.346;2024-03-06T01:02:13;98342.63;;;5.65;100.00
81545;BME280;70990;50.618;7.346;2024-03-06T01:04:40;98346.00;;;5.52;100.00
81545;BME280;70990;50.618;7.346;2024-03-06T01:07:06;98344.44;;;5.51;100.00
81545;BME280;70990;50.618;7.346;2024-03-06T01:09:33;98344.34;;;5.44;100.00
81545;BME280;70990;50.618;7.346;2024-03-06T01:11:59;98351.31;;;5.34;100.00
81545;BME280;70990;50.618;7.346;2024-03-06T01:14:26;98346.25;;;5.36;100.00
81545;BME280;70990;50.618;7.346;2024-03-06T01:16:52;98348.31;;;5.50;100.00
81545;BME280;70990;50.618;7.346;2024-03-06T01:19:19;98352.09;;;5.35;100.00
81545;BME280;70990;50.618;7.346;2024-03-06T01:21:45;98363.97;;;5.46;100.00
81545;BME280;70990;50.618;7.346;2024-03-06T01:24:12;98351.03;;;5.46;100.00
81545;BME280;70990;50.618;7.346;2024-03-06T01:26:38;98351.84;;;5.50;100.00
81545;BME280;70990;50.618;7.346;2024-03-06T01:29:05;98354.22;;;5.52;100.00
81545;BME280;70990;50.618;7.346;2024-03-06T01:31:32;98355.38;;;5.51;100.00
81545;BME280;70990;50.618;7.346;2024-03-06T01:33:59;98353.38;;;5.44;100.00
81545;BME280;70990;50.618;7.346;2024-03-06T01:36:25;98356.94;;;5.48;100.00
81545;BME280;70990;50.618;7.346;2024-03-06T01:38:51;98345.16;;;5.44;100.00
81545;BME280;70990;50.618;7.346;2024-03-06T01:41:18;98358.22;;;5.58;100.00
81545;BME280;70990;50.618;7.346;2024-03-06T01:43:45;98358.41;;;5.39;100.00
81545;BME280;70990;50.618;7.346;2024-03-06T01:46:11;98359.69;;;5.15;100.00
81545;BME280;70990;50.618;7.346;2024-03-06T01:48:38;98354.81;;;4.98;100.00
81545;BME280;70990;50.618;7.346;2024-03-06T01:51:05;98360.09;;;4.83;100.00
81545;BME280;70990;50.618;7.346;2024-03-06T01:53:32;98359.16;;;4.72;100.00
81545;BME280;70990;50.618;7.346;2024-03-06T01:56:01;98364.75;;;4.79;100.00
81545;BME280;70990;50.618;7.346;2024-03-06T01:58:28;98365.91;;;4.78;100.00
81545;BME280;70990;50.618;7.346;2024-03-06T02:00:54;98366.91;;;4.67;100.00
81545;BME280;70990;50.618;7.346;2024-03-06T02:03:21;98364.34;;;4.51;100.00
81545;BME280;70990;50.618;7.346;2024-03-06T02:05:49;98369.53;;;4.33;100.00
81545;BME280;70990;50.618;7.346;2024-03-06T02:08:17;98374.06;;;4.22;100.00
81545;BME280;70990;50.618;7.346;2024-03-06T02:10:44;98370.88;;;4.17;100.00
81545;BME280;70990;50.618;7.346;2024-03-06T02:13:12;98367.25;;;4.13;100.00
81545;BME280;70990;50.618;7.346;2024-03-06T02:15:39;98371.81;;;4.28;100.00
81545;BME280;70990;50.618;7.346;2024-03-06T02:18:06;98359.84;;;4.36;100.00
81545;BME280;70990;50.618;7.346;2024-03-06T02:20:33;98366.28;;;4.51;100.00
81545;BME280;70990;50.618;7.346;2024-03-06T02:22:59;98360.28;;;4.68;100.00
81545;BME280;70990;50.618;7.346;2024-03-06T02:25:26;98354.59;;;4.80;100.00
81545;BME280;70990;50.618;7.346;2024-03-06T02:27:53;98359.50;;;4.67;100.00
81545;BME280;70990;50.618;7.346;2024-03-06T02:30:20;98359.38;;;4.86;100.00
81545;BME280;70990;50.618;7.346;2024-03-06T02:32:50;98362.97;;;4.64;100.00
81545;BME280;70990;50.618;7.346;2024-03-06T02:35:18;98363.28;;;4.59;100.00
81545;BME280;70990;50.618;7.346;2024-03-06T02:37:44;98353.59;;;4.39;100.00
81545;BME280;70990;50.618;7.346;2024-03-06T02:40:11;98352.91;;;4.45;100.00
81545;BME280;70990;50.618;7.346;2024-03-06T02:42:38;98359.16;;;4.72;100.00
81545;BME280;70990;50.618;7.346;2024-03-06T02:45:06;98356.19;;;4.84;100.00
81545;BME280;70990;50.618;7.346;2024-03-06T02:47:32;98354.19;;;4.81;100.00
81545;BME280;70990;50.618;7.346;2024-03-06T02:49:59;98355.41;;;4.84;100.00
81545;BME280;70990;50.618;7.346;2024-03-06T02:52:26;98359.38;;;4.86;100.00
81545;BME280;70990;50.618;7.346;2024-03-06T02:54:53;98353.78;;;4.79;100.00
81545;BME280;70990;50.618;7.346;2024-03-06T02:57:19;98359.38;;;4.86;100.00
81545;BME280;70990;50.618;7.346;2024-03-06T02:59:46;98361.75;;;4.92;100.00
81545;BME280;70990;50.618;7.346;2024-03-06T03:02:13;98350.72;;;4.84;100.00
81545;BME280;70990;50.618;7.346;2024-03-06T03:04:40;98359.53;;;4.71;100.00
81545;BME280;70990;50.618;7.346;2024-03-06T03:07:07;98351.19;;;4.60;100.00
81545;BME280;70990;50.618;7.346;2024-03-06T03:09:33;98363.25;;;4.56;100.00
81545;BME280;70990;50.618;7.346;2024-03-06T03:12:01;98363.25;;;4.56;100.00
81545;BME280;70990;50.618;7.346;2024-03-06T03:14:28;98366.56;;;4.42;100.00
81545;BME280;70990;50.618;7.346;2024-03-06T03:16:54;98379.66;;;4.29;100.00
81545;BME280;70990;50.618;7.346;2024-03-06T03:19:21;98379.53;;;4.22;100.00
81545;BME280;70990;50.618;7.346;2024-03-06T03:21:47;98378.72;;;3.95;100.00
81545;BME280;70990;50.618;7.346;2024-03-06T03:24:14;98392.25;;;3.88;100.00
81545;BME280;70990;50.618;7.346;2024-03-06T03:26:40;98386.66;;;3.81;100.00
81545;BME280;70990;50.618;7.346;2024-03-06T03:29:07;98398.94;;;3.68;100.00
81545;BME280;70990;50.618;7.346;2024-03-06T03:31:34;98399.28;;;3.67;100.00
81545;BME280;70990;50.618;7.346;2024-03-06T03:34:00;98396.81;;;3.39;100.00
81545;BME280;70990;50.618;7.346;2024-03-06T03:36:27;98397.69;;;3.43;100.00
81545;BME280;70990;50.618;7.346;2024-03-06T03:38:53;98411.44;;;3.50;100.00
81545;BME280;70990;50.618;7.346;2024-03-06T03:41:19;98410.31;;;3.51;100.00
81545;BME280;70990;50.618;7.346;2024-03-06T03:43:46;98416.41;;;3.44;100.00
81545;BME280;70990;50.618;7.346;2024-03-06T03:46:12;98415.22;;;3.22;100.00
81545;BME280;70990;50.618;7.346;2024-03-06T03:48:39;98406.88;;;3.15;100.00
81545;BME280;70990;50.618;7.346;2024-03-06T03:51:06;98414.28;;;3.15;100.00
81545;BME280;70990;50.618;7.346;2024-03-06T03:53:33;98408.31;;;3.29;100.00
81545;BME280;70990;50.618;7.346;2024-03-06T03:56:00;98408.63;;;3.04;100.00
81545;BME280;70990;50.618;7.346;2024-03-06T03:58:27;98420.66;;;2.84;100.00
81545;BME280;70990;50.618;7.346;2024-03-06T04:00:53;98416.69;;;2.81;100.00
81545;BME280;70990;50.618;7.346;2024-03-06T04:03:20;98418.09;;;2.91;100.00
81545;BME280;70990;50.618;7.346;2024-03-06T04:05:47;98417.56;;;2.86;100.00
81545;BME280;70990;50.618;7.346;2024-03-06T04:08:14;98423.22;;;2.77;100.00
81545;BME280;70990;50.618;7.346;2024-03-06T04:10:42;98417.09;;;2.99;100.00
81545;BME280;70990;50.618;7.346;2024-03-06T04:13:09;98407.03;;;2.49;100.00
81545;BME280;70990;50.618;7.346;2024-03-06T04:15:35;98428.09;;;2.68;100.00
81545;BME280;70990;50.618;7.346;2024-03-06T04:18:02;98440.56;;;3.04;100.00
81545;BME280;70990;50.618;7.346;2024-03-06T04:20:28;98440.16;;;3.21;100.00
81545;BME280;70990;50.618;7.346;2024-03-06T04:22:55;98438.50;;;3.36;100.00
81545;BME280;70990;50.618;7.346;2024-03-06T04:25:22;98441.66;;;3.18;100.00
81545;BME280;70990;50.618;7.346;2024-03-06T04:27:49;98440.38;;;2.77;100.00
81545;BME280;70990;50.618;7.346;2024-03-06T04:30:16;98444.13;;;2.54;100.00
81545;BME280;70990;50.618;7.346;2024-03-06T04:32:43;98456.03;;;2.30;100.00
81545;BME280;70990;50.618;7.346;2024-03-06T04:35:09;98441.78;;;2.05;100.00
81545;BME280;70990;50.618;7.346;2024-03-06T04:37:36;98452.31;;;2.07;100.00
81545;BME280;70990;50.618;7.346;2024-03-06T04:40:03;98459.78;;;1.94;100.00
81545;BME280;70990;50.618;7.346;2024-03-06T04:42:30;98462.34;;;1.87;100.00
81545;BME280;70990;50.618;7.346;2024-03-06T04:44:56;98458.47;;;1.88;100.00
81545;BME280;70990;50.618;7.346;2024-03-06T04:47:24;98461.56;;;2.02;100.00
81545;BME280;70990;50.618;7.346;2024-03-06T04:49:54;98437.81;;;1.87;100.00
81545;BME280;70990;50.618;7.346;2024-03-06T04:52:20;98463.69;;;2.24;100.00
81545;BME280;70990;50.618;7.346;2024-03-06T04:54:47;98462.28;;;2.30;100.00
81545;BME280;70990;50.618;7.346;2024-03-06T04:57:13;98465.50;;;2.20;100.00
81545;BME280;70990;50.618;7.346;2024-03-06T04:59:40;98459.16;;;1.85;100.00
81545;BME280;70990;50.618;7.346;2024-03-06T05:02:07;98460.22;;;1.96;100.00
81545;BME280;70990;50.618;7.346;2024-03-06T05:04:33;98456.22;;;2.06;100.00
81545;BME280;70990;50.618;7.346;2024-03-06T05:07:17;98462.09;;;2.08;100.00
81545;BME280;70990;50.618;7.346;2024-03-06T05:10:02;98467.72;;;1.99;100.00
81545;BME280;70990;50.618;7.346;2024-03-06T05:12:46;98465.50;;;1.89;100.00
81545;BME280;70990;50.618;7.346;2024-03-06T05:15:30;98473.25;;;2.02;100.00
81545;BME280;70990;50.618;7.346;2024-03-06T05:18:14;98468.16;;;2.17;100.00
81545;BME280;70990;50.618;7.346;2024-03-06T05:20:57;98475.09;;;2.14;100.00
81545;BME280;70990;50.618;7.346;2024-03-06T05:23:41;98486.97;;;2.22;100.00
81545;BME280;70990;50.618;7.346;2024-03-06T05:26:25;98492.06;;;2.08;100.00
81545;BME280;70990;50.618;7.346;2024-03-06T05:29:09;98495.66;;;1.96;100.00
81545;BME280;70990;50.618;7.346;2024-03-06T05:31:53;98493.50;;;1.74;100.00
81545;BME280;70990;50.618;7.346;2024-03-06T05:34:37;98505.06;;;2.14;100.00
81545;BME280;70990;50.618;7.346;2024-03-06T05:37:21;98512.84;;;2.12;100.00
81545;BME280;70990;50.618;7.346;2024-03-06T05:40:06;98518.09;;;2.21;100.00
81545;BME280;70990;50.618;7.346;2024-03-06T05:42:50;98519.94;;;2.64;100.00
81545;BME280;70990;50.618;7.346;2024-03-06T05:45:34;98516.19;;;2.37;100.00
81545;BME280;70990;50.618;7.346;2024-03-06T05:48:18;98511.59;;;2.57;100.00
81545;BME280;70990;50.618;7.346;2024-03-06T05:51:03;98513.38;;;2.49;100.00
81545;BME280;70990;50.618;7.346;2024-03-06T05:53:47;98522.50;;;2.41;100.00
81545;BME280;70990;50.618;7.346;2024-03-06T05:56:31;98521.19;;;2.35;100.00
81545;BME280;70990;50.618;7.346;2024-03-06T05:59:15;98520.47;;;2.22;100.00
81545;BME280;70990;50.618;7.346;2024-03-06T06:01:41;98528.56;;;2.34;100.00
81545;BME280;70990;50.618;7.346;2024-03-06T06:04:08;98528.41;;;2.27;100.00
81545;BME280;70990;50.618;7.346;2024-03-06T06:06:35;98528.31;;;2.24;100.00
81545;BME280;70990;50.618;7.346;2024-03-06T06:09:02;98539.06;;;2.48;100.00
81545;BME280;70990;50.618;7.346;2024-03-06T06:11:28;98536.25;;;2.60;100.00
81545;BME280;70990;50.618;7.346;2024-03-06T06:13:55;98532.09;;;2.51;100.00
81545;BME280;70990;50.618;7.346;2024-03-06T06:16:21;98538.53;;;2.42;100.00
81545;BME280;70990;50.618;7.346;2024-03-06T06:18:48;98544.50;;;2.48;100.00
81545;BME280;70990;50.618;7.346;2024-03-06T06:21:15;98550.22;;;2.59;100.00
81545;BME280;70990;50.618;7.346;2024-03-06T06:23:41;98549.44;;;2.74;100.00
81545;BME280;70990;50.618;7.346;2024-03-06T06:26:09;98535.75;;;2.90;100.00
81545;BME280;70990;50.618;7.346;2024-03-06T06:28:36;98544.53;;;3.14;100.00
81545;BME280;70990;50.618;7.346;2024-03-06T06:31:04;98544.06;;;3.28;100.00
81545;BME280;70990;50.618;7.346;2024-03-06T06:33:30;98546.88;;;3.51;100.00
81545;BME280;70990;50.618;7.346;2024-03-06T06:36:01;98562.41;;;3.47;100.00
81545;BME280;70990;50.618;7.346;2024-03-06T06:38:33;98559.47;;;3.20;100.00
81545;BME280;70990;50.618;7.346;2024-03-06T06:40:59;98576.25;;;3.03;100.00
81545;BME280;70990;50.618;7.346;2024-03-06T06:43:26;98573.00;;;2.82;100.00
81545;BME280;70990;50.618;7.346;2024-03-06T06:45:53;98575.56;;;2.75;100.00
81545;BME280;70990;50.618;7.346;2024-03-06T06:48:20;98588.84;;;2.61;100.00
81545;BME280;70990;50.618;7.346;2024-03-06T06:50:47;98591.66;;;2.64;100.00
81545;BME280;70990;50.618;7.346;2024-03-06T06:53:14;98589.28;;;2.47;100.00
81545;BME280;70990;50.618;7.346;2024-03-06T06:55:40;98597.03;;;2.76;100.00
81545;BME280;70990;50.618;7.346;2024-03-06T06:58:06;98599.59;;;2.85;100.00
81545;BME280;70990;50.618;7.346;2024-03-06T07:00:33;98597.75;;;3.05;100.00
81545;BME280;70990;50.618;7.346;2024-03-06T07:03:00;98600.78;;;3.19;100.00
81545;BME280;70990;50.618;7.346;2024-03-06T07:05:26;98600.88;;;3.22;100.00
81545;BME280;70990;50.618;7.346;2024-03-06T07:07:53;98607.66;;;3.13;100.00
81545;BME280;70990;50.618;7.346;2024-03-06T07:10:21;98612.78;;;3.14;100.00
81545;BME280;70990;50.618;7.346;2024-03-06T07:12:47;98610.84;;;3.15;100.00
81545;BME280;70990;50.618;7.346;2024-03-06T07:15:14;98616.75;;;3.01;100.00
81545;BME280;70990;50.618;7.346;2024-03-06T07:17:40;98619.38;;;3.13;100.00
81545;BME280;70990;50.618;7.346;2024-03-06T07:20:07;98626.41;;;3.30;100.00
81545;BME280;70990;50.618;7.346;2024-03-06T07:22:34;98609.13;;;3.42;100.00
81545;BME280;70990;50.618;7.346;2024-03-06T07:25:01;98623.97;;;3.60;100.00
81545;BME280;70990;50.618;7.346;2024-03-06T07:27:28;98619.22;;;3.76;100.00
81545;BME280;70990;50.618;7.346;2024-03-06T07:29:54;98622.22;;;3.87;100.00
81545;BME280;70990;50.618;7.346;2024-03-06T07:32:21;98628.91;;;4.09;100.00
81545;BME280;70990;50.618;7.346;2024-03-06T07:34:47;98629.53;;;3.83;100.00
81545;BME280;70990;50.618;7.346;2024-03-06T07:37:14;98625.00;;;3.90;100.00
81545;BME280;70990;50.618;7.346;2024-03-06T07:39:40;98626.94;;;3.71;100.00
81545;BME280;70990;50.618;7.346;2024-03-06T07:42:07;98626.28;;;3.77;100.00
81545;BME280;70990;50.618;7.346;2024-03-06T07:44:33;98627.72;;;3.71;100.00
81545;BME280;70990;50.618;7.346;2024-03-06T07:47:00;98629.88;;;3.62;100.00
81545;BME280;70990;50.618;7.346;2024-03-06T07:49:27;98636.66;;;3.87;100.00
81545;BME280;70990;50.618;7.346;2024-03-06T07:51:53;98643.59;;;3.65;100.00
81545;BME280;70990;50.618;7.346;2024-03-06T07:54:19;98646.28;;;3.62;100.00
81545;BME280;70990;50.618;7.346;2024-03-06T07:56:48;98649.03;;;3.46;100.00
81545;BME280;70990;50.618;7.346;2024-03-06T07:59:14;98648.06;;;3.39;100.00
81545;BME280;70990;50.618;7.346;2024-03-06T08:01:41;98660.00;;;3.50;100.00
81545;BME280;70990;50.618;7.346;2024-03-06T08:04:08;98654.25;;;3.36;100.00
81545;BME280;70990;50.618;7.346;2024-03-06T08:06:34;98656.31;;;3.58;100.00
81545;BME280;70990;50.618;7.346;2024-03-06T08:09:01;98649.06;;;3.65;100.00
81545;BME280;70990;50.618;7.346;2024-03-06T08:11:29;98669.84;;;3.70;100.00
81545;BME280;70990;50.618;7.346;2024-03-06T08:13:59;98658.19;;;3.54;100.00
81545;BME280;70990;50.618;7.346;2024-03-06T08:16:27;98662.88;;;3.73;100.00
81545;BME280;70990;50.618;7.346;2024-03-06T08:18:55;98662.69;;;3.81;100.00
81545;BME280;70990;50.618;7.346;2024-03-06T08:21:21;98670.41;;;3.60;100.00
81545;BME280;70990;50.618;7.346;2024-03-06T08:23:48;98670.00;;;3.42;100.00
81545;BME280;70990;50.618;7.346;2024-03-06T08:26:14;98674.41;;;3.82;100.00
81545;BME280;70990;50.618;7.346;2024-03-06T08:28:41;98670.41;;;3.95;100.00
81545;BME280;70990;50.618;7.346;2024-03-06T08:31:08;98677.59;;;4.03;100.00
81545;BME280;70990;50.618;7.346;2024-03-06T08:33:34;98682.50;;;4.13;100.00
81545;BME280;70990;50.618;7.346;2024-03-06T08:36:01;98688.34;;;4.12;100.00
81545;BME280;70990;50.618;7.346;2024-03-06T08:38:27;98691.44;;;4.29;100.00
81545;BME280;70990;50.618;7.346;2024-03-06T08:40:54;98689.34;;;4.23;100.00
81545;BME280;70990;50.618;7.346;2024-03-06T08:43:20;98691.81;;;3.58;100.00
81545;BME280;70990;50.618;7.346;2024-03-06T08:45:47;98691.72;;;4.05;100.00
81545;BME280;70990;50.618;7.346;2024-03-06T08:48:13;98687.47;;;4.46;100.00
81545;BME280;70990;50.618;7.346;2024-03-06T08:50:40;98693.59;;;4.39;100.00
81545;BME280;70990;50.618;7.346;2024-03-06T08:53:07;98691.41;;;5.10;100.00
81545;BME280;70990;50.618;7.346;2024-03-06T08:55:33;98687.78;;;5.51;100.00
81545;BME280;70990;50.618;7.346;2024-03-06T08:58:00;98701.06;;;5.76;100.00
81545;BME280;70990;50.618;7.346;2024-03-06T09:00:27;98697.41;;;5.91;100.00
81545;BME280;70990;50.618;7.346;2024-03-06T09:02:53;98714.09;;;6.05;100.00
81545;BME280;70990;50.618;7.346;2024-03-06T09:05:21;98700.13;;;6.17;100.00
81545;BME280;70990;50.618;7.346;2024-03-06T09:07:47;98705.63;;;6.17;100.00
81545;BME280;70990;50.618;7.346;2024-03-06T09:10:14;98698.97;;;6.18;100.00
81545;BME280;70990;50.618;7.346;2024-03-06T09:12:40;98707.84;;;6.38;100.00
81545;BME280;70990;50.618;7.346;2024-03-06T09:15:07;98710.03;;;6.25;100.00
81545;BME280;70990;50.618;7.346;2024-03-06T09:17:34;98699.19;;;6.69;100.00
81545;BME280;70990;50.618;7.346;2024-03-06T09:20:01;98701.47;;;6.64;100.00
81545;BME280;70990;50.618;7.346;2024-03-06T09:22:44;98708.72;;;6.79;100.00
81545;BME280;70990;50.618;7.346;2024-03-06T09:25:11;98710.88;;;6.96;100.00
81545;BME280;70990;50.618;7.346;2024-03-06T09:27:37;98714.03;;;6.98;100.00
81545;BME280;70990;50.618;7.346;2024-03-06T09:30:04;98715.38;;;7.15;100.00
81545;BME280;70990;50.618;7.346;2024-03-06T09:32:31;98718.13;;;7.15;100.00
81545;BME280;70990;50.618;7.346;2024-03-06T09:34:59;98722.91;;;7.21;100.00
81545;BME280;70990;50.618;7.346;2024-03-06T09:37:26;98721.09;;;7.36;100.00
81545;BME280;70990;50.618;7.346;2024-03-06T09:39:52;98728.75;;;7.64;100.00
81545;BME280;70990;50.618;7.346;2024-03-06T09:42:19;98718.00;;;7.45;100.00
81545;BME280;70990;50.618;7.346;2024-03-06T09:44:45;98726.72;;;7.54;100.00
81545;BME280;70990;50.618;7.346;2024-03-06T09:47:13;98733.22;;;7.79;100.00
81545;BME280;70990;50.618;7.346;2024-03-06T09:49:40;98734.03;;;7.83;100.00
81545;BME280;70990;50.618;7.346;2024-03-06T09:52:07;98736.50;;;7.99;100.00
81545;BME280;70990;50.618;7.346;2024-03-06T09:54:34;98742.81;;;8.03;99.32
81545;BME280;70990;50.618;7.346;2024-03-06T09:57:01;98731.78;;;7.99;99.06
81545;BME280;70990;50.618;7.346;2024-03-06T09:59:27;98734.59;;;8.10;99.46
81545;BME280;70990;50.618;7.346;2024-03-06T10:01:55;98729.41;;;7.98;97.53
81545;BME280;70990;50.618;7.346;2024-03-06T10:04:23;98742.13;;;7.18;98.67
81545;BME280;70990;50.618;7.346;2024-03-06T10:06:54;98743.88;;;7.84;100.00
81545;BME280;70990;50.618;7.346;2024-03-06T10:09:21;98740.59;;;8.26;100.00
81545;BME280;70990;50.618;7.346;2024-03-06T10:11:48;98753.25;;;8.34;99.60
81545;BME280;70990;50.618;7.346;2024-03-06T10:14:15;98750.19;;;8.46;97.24
81545;BME280;70990;50.618;7.346;2024-03-06T10:16:58;98753.19;;;8.24;94.92
81545;BME280;70990;50.618;7.346;2024-03-06T10:19:27;98755.75;;;8.61;93.61
81545;BME280;70990;50.618;7.346;2024-03-06T10:21:55;98749.56;;;8.85;95.65
81545;BME280;70990;50.618;7.346;2024-03-06T10:24:23;98751.97;;;9.08;92.24
81545;BME280;70990;50.618;7.346;2024-03-06T10:26:51;98752.81;;;9.22;92.39
81545;BME280;70990;50.618;7.346;2024-03-06T10:29:18;98758.72;;;9.24;89.69
81545;BME280;70990;50.618;7.346;2024-03-06T10:31:49;98760.72;;;9.24;89.16
81545;BME280;70990;50.618;7.346;2024-03-06T10:34:16;98756.78;;;9.50;90.53
81545;BME280;70990;50.618;7.346;2024-03-06T10:36:43;98751.31;;;9.67;88.46
81545;BME280;70990;50.618;7.346;2024-03-06T10:39:11;98758.38;;;9.83;87.02
81545;BME280;70990;50.618;7.346;2024-03-06T10:41:38;98759.97;;;9.80;86.60
81545;BME280;70990;50.618;7.346;2024-03-06T10:44:11;98755.63;;;9.54;82.57
81545;BME280;70990;50.618;7.346;2024-03-06T10:46:40;98757.56;;;9.50;83.88
81545;BME280;70990;50.618;7.346;2024-03-06T10:49:10;98757.59;;;10.00;89.46
81545;BME280;70990;50.618;7.346;2024-03-06T10:51:40;98753.66;;;10.22;87.61
81545;BME280;70990;50.618;7.346;2024-03-06T10:54:08;98759.94;;;10.40;86.84
81545;BME280;70990;50.618;7.346;2024-03-06T10:56:34;98761.06;;;10.61;85.52
81545;BME280;70990;50.618;7.346;2024-03-06T10:59:01;98759.06;;;10.65;84.38
81545;BME280;70990;50.618;7.346;2024-03-06T11:01:29;98766.66;;;10.18;83.47
81545;BME280;70990;50.618;7.346;2024-03-06T11:03:59;98764.69;;;10.36;86.36
81545;BME280;70990;50.618;7.346;2024-03-06T11:06:26;98764.19;;;10.73;84.29
81545;BME280;70990;50.618;7.346;2024-03-06T11:08:53;98768.84;;;10.90;84.75
81545;BME280;70990;50.618;7.346;2024-03-06T11:11:21;98775.13;;;10.98;82.72
81545;BME280;70990;50.618;7.346;2024-03-06T11:13:50;98767.56;;;11.09;78.84
81545;BME280;70990;50.618;7.346;2024-03-06T11:16:17;98765.84;;;11.37;81.85
81545;BME280;70990;50.618;7.346;2024-03-06T11:18:44;98773.19;;;10.91;77.72
81545;BME280;70990;50.618;7.346;2024-03-06T11:24:16;98769.31;;;10.71;81.46
81545;BME280;70990;50.618;7.346;2024-03-06T11:26:45;98767.44;;;10.29;79.89
81545;BME280;70990;50.618;7.346;2024-03-06T11:29:15;98769.00;;;10.37;82.25
81545;BME280;70990;50.618;7.346;2024-03-06T11:31:59;98776.03;;;10.74;84.54
81545;BME280;70990;50.618;7.346;2024-03-06T11:34:26;98777.50;;;10.96;82.10
81545;BME280;70990;50.618;7.346;2024-03-06T11:36:53;98770.47;;;11.50;84.55
81545;BME280;70990;50.618;7.346;2024-03-06T11:39:22;98767.69;;;11.54;80.47
81545;BME280;70990;50.618;7.346;2024-03-06T11:41:50;98774.53;;;11.94;79.88
81545;BME280;70990;50.618;7.346;2024-03-06T11:44:21;98763.78;;;11.99;79.68
81545;BME280;70990;50.618;7.346;2024-03-06T11:46:56;98768.19;;;11.93;75.86
81545;BME280;70990;50.618;7.346;2024-03-06T11:49:24;98759.59;;;12.66;78.44
81545;BME280;70990;50.618;7.346;2024-03-06T11:51:52;98763.06;;;11.95;73.31
81545;BME280;70990;50.618;7.346;2024-03-06T11:54:19;98762.22;;;12.43;77.95
81545;BME280;70990;50.618;7.346;2024-03-06T11:56:46;98767.06;;;11.87;71.37
81545;BME280;70990;50.618;7.346;2024-03-06T11:59:12;98761.72;;;12.51;74.73
81545;BME280;70990;50.618;7.346;2024-03-06T12:01:42;98766.91;;;12.83;75.71
81545;BME280;70990;50.618;7.346;2024-03-06T12:04:09;98768.03;;;13.20;72.18
81545;BME280;70990;50.618;7.346;2024-03-06T12:06:36;98765.41;;;13.40;72.08
81545;BME280;70990;50.618;7.346;2024-03-06T12:09:03;98757.34;;;13.18;71.72
81545;BME280;70990;50.618;7.346;2024-03-06T12:11:29;98773.56;;;13.23;70.11
81545;BME280;70990;50.618;7.346;2024-03-06T12:13:56;98757.84;;;13.40;70.17
81545;BME280;70990;50.618;7.346;2024-03-06T12:16:23;98766.66;;;13.62;69.68
81545;BME280;70990;50.618;7.346;2024-03-06T12:18:59;98758.97;;;13.46;69.41
81545;BME280;70990;50.618;7.346;2024-03-06T12:21:33;98762.16;;;14.18;68.19
81545;BME280;70990;50.618;7.346;2024-03-06T12:24:08;98756.19;;;14.20;66.26
81545;BME280;70990;50.618;7.346;2024-03-06T12:26:36;98764.41;;;14.03;62.97
81545;BME280;70990;50.618;7.346;2024-03-06T12:29:07;98756.72;;;14.34;65.32
81545;BME280;70990;50.618;7.346;2024-03-06T12:31:35;98759.06;;;14.12;59.23
81545;BME280;70990;50.618;7.346;2024-03-06T12:34:03;98751.63;;;13.32;63.32
81545;BME280;70990;50.618;7.346;2024-03-06T12:36:31;98749.78;;;13.76;67.38
81545;BME280;70990;50.618;7.346;2024-03-06T12:38:59;98761.22;;;14.05;64.44
81545;BME280;70990;50.618;7.346;2024-03-06T12:41:26;98756.53;;;14.45;64.61
81545;BME280;70990;50.618;7.346;2024-03-06T12:43:54;98754.91;;;14.24;58.00
81545;BME280;70990;50.618;7.346;2024-03-06T12:46:21;98762.41;;;14.90;59.35
81545;BME280;70990;50.618;7.346;2024-03-06T12:48:48;98753.06;;;15.00;54.16
81545;BME280;70990;50.618;7.346;2024-03-06T12:51:14;98756.53;;;14.45;55.57
81545;BME280;70990;50.618;7.346;2024-03-06T12:53:41;98756.91;;;14.24;58.77
81545;BME280;70990;50.618;7.346;2024-03-06T12:56:08;98752.00;;;14.74;56.63
81545;BME280;70990;50.618;7.346;2024-03-06T12:58:34;98755.28;;;14.89;53.57
81545;BME280;70990;50.618;7.346;2024-03-06T13:01:01;98760.59;;;13.94;50.25
81545;BME280;70990;50.618;7.346;2024-03-06T13:03:28;98760.19;;;13.68;50.82
81545;BME280;70990;50.618;7.346;2024-03-06T13:05:54;98750.50;;;14.27;57.85
81545;BME280;70990;50.618;7.346;2024-03-06T13:08:21;98744.72;;;15.00;58.39